Time;durP1;ratioP1;P1;durP2;ratioP2;P2;SDS_P1;SDS_P2;PMS_P1;PMS_P2;Temp;Humidity;BMP_temperature;BMP_pressure;BME280_temperature;BME280_humidity;BME280_pressure;Samples;Min_cycle;Max_cycle;Signal;HPM_P1;HPM_P2
2021/01/16 00:01:58;;;;;;;;;;;8.70;56.10;;;;;;5105145;28;19908;-67
2021/01/16 00:04:24;;;;;;;;;;;8.70;55.80;;;;;;5105043;28;19908;-68
2021/01/16 00:06:49;;;;;;;;;;;8.70;56.10;;;;;;5105068;28;19908;-66
2021/01/16 00:09:15;;;;;;;;;;;8.60;56.00;;;;;;5104979;28;19900;-68
2021/01/16 00:11:40;;;;;;;;;;;8.70;56.10;;;;;;5104985;28;19937;-66
2021/01/16 00:14:06;;;;;;;;;;;8.70;55.70;;;;;;5104867;28;19900;-66
2021/01/16 00:16:32;;;;;;;;;;;8.70;56.00;;;;;;5103670;28;19900;-66
2021/01/16 00:18:57;;;;;;;;;;;8.60;55.80;;;;;;5105019;28;20013;-68
2021/01/16 00:21:23;;;;;;;;;;;8.60;55.80;;;;;;5104485;28;19977;-64
2021/01/16 00:23:48;;;;;;;;;;;8.60;55.80;;;;;;5104700;28;19969;-67
2021/01/16 00:26:14;;;;;;;;;;;8.60;56.20;;;;;;5104604;28;19979;-66
2021/01/16 00:28:39;;;;;;;;;;;8.60;56.10;;;;;;5104637;28;20200;-67
2021/01/16 00:31:05;;;;;;;;;;;8.60;56.00;;;;;;5104536;28;19899;-66
2021/01/16 00:33:32;;;;;;;;;;;8.60;56.30;;;;;;5104012;28;19900;-68
2021/01/16 00:35:58;;;;;;;;;;;8.60;56.00;;;;;;5104459;28;19987;-66
2021/01/16 00:38:24;;;;;;;;;;;8.60;56.70;;;;;;5104409;28;19900;-69
2021/01/16 00:40:50;;;;;;;;;;;8.60;56.10;;;;;;5104312;28;19911;-65
2021/01/16 00:43:16;;;;;;;;;;;8.60;56.00;;;;;;5104388;28;20214;-68
2021/01/16 00:45:43;;;;;;;;;;;8.60;56.00;;;;;;5104558;28;19922;-67
2021/01/16 00:48:18;;;;;;;;;;;8.60;56.10;;;;;;5104259;28;19904;-67
2021/01/16 00:50:45;;;;;;;;;;;8.60;56.10;;;;;;5104146;28;19899;-64
2021/01/16 00:53:11;;;;;;;;;;;8.60;56.10;;;;;;5104144;28;20272;-68
2021/01/16 00:55:36;;;;;;;;;;;8.60;56.30;;;;;;5104034;28;19907;-66
2021/01/16 00:58:12;;;;;;;;;;;8.60;55.70;;;;;;5104021;28;19907;-65
2021/01/16 01:00:39;;;;;;;;;;;8.60;55.90;;;;;;5103909;28;19912;-66
2021/01/16 01:03:05;;;;;;;;;;;8.60;56.00;;;;;;5103946;28;19943;-68
2021/01/16 01:05:31;;;;;;;;;;;8.50;56.10;;;;;;5103886;28;19900;-67
2021/01/16 01:07:56;;;;;;;;;;;8.50;56.20;;;;;;5103832;28;19900;-67
2021/01/16 01:10:36;;;;;;;;;;;8.50;55.60;;;;;;5103802;28;19969;-66
2021/01/16 01:13:02;;;;;;;;;;;8.60;56.10;;;;;;5103754;28;19907;-64
2021/01/16 01:15:29;;;;;;;;;;;8.60;55.70;;;;;;5103997;28;20391;-65
2021/01/16 01:17:56;;;;;;;;;;;8.60;55.80;;;;;;5103613;28;19908;-65
2021/01/16 01:20:22;;;;;;;;;;;8.60;56.00;;;;;;5103535;28;19908;-68
2021/01/16 01:22:47;;;;;;;;;;;8.60;55.90;;;;;;5103364;28;19990;-67
2021/01/16 01:25:14;;;;;;;;;;;8.50;56.00;;;;;;5103475;28;19907;-64
2021/01/16 01:27:39;;;;;;;;;;;8.50;55.80;;;;;;5103517;28;19971;-67
2021/01/16 01:30:05;;;;;;;;;;;8.50;56.00;;;;;;5103415;28;19923;-67
2021/01/16 01:32:31;;;;;;;;;;;8.50;56.00;;;;;;5103425;28;19970;-67
2021/01/16 01:34:57;;;;;;;;;;;8.50;56.20;;;;;;5103337;28;19907;-68
2021/01/16 01:37:22;;;;;;;;;;;8.50;56.10;;;;;;5103300;28;19930;-66
2021/01/16 01:39:48;;;;;;;;;;;8.50;56.00;;;;;;5103186;28;19942;-64
2021/01/16 01:42:17;;;;;;;;;;;8.50;55.90;;;;;;5103248;28;19937;-66
2021/01/16 01:44:43;;;;;;;;;;;8.50;55.90;;;;;;5102363;28;19928;-65
2021/01/16 01:47:10;;;;;;;;;;;8.50;55.90;;;;;;5103154;28;19904;-66
2021/01/16 01:49:36;;;;;;;;;;;8.50;55.90;;;;;;5103050;28;20250;-68
2021/01/16 01:52:01;;;;;;;;;;;8.50;55.80;;;;;;5103086;28;19936;-68
2021/01/16 01:54:28;;;;;;;;;;;8.50;55.90;;;;;;5103234;28;19907;-67
2021/01/16 01:56:54;;;;;;;;;;;8.50;56.20;;;;;;5102949;28;19900;-67
2021/01/16 01:59:22;;;;;;;;;;;8.50;55.90;;;;;;5102844;28;20107;-68
2021/01/16 02:01:50;;;;;;;;;;;8.50;55.90;;;;;;5102926;28;19950;-66
2021/01/16 02:04:17;;;;;;;;;;;8.50;56.10;;;;;;5102839;28;19900;-66
2021/01/16 02:06:42;;;;;;;;;;;8.50;56.10;;;;;;5103088;28;19954;-66
2021/01/16 02:09:08;;;;;;;;;;;8.50;55.70;;;;;;5102821;28;19970;-66
2021/01/16 02:11:34;;;;;;;;;;;8.50;55.80;;;;;;5102771;28;20213;-67
2021/01/16 02:13:59;;;;;;;;;;;8.50;55.50;;;;;;5102776;28;19939;-65
2021/01/16 02:16:31;;;;;;;;;;;8.50;55.60;;;;;;5102706;28;20236;-67
2021/01/16 02:18:58;;;;;;;;;;;8.50;55.80;;;;;;5102681;28;19915;-67
2021/01/16 02:21:25;;;;;;;;;;;8.50;55.60;;;;;;5102492;28;19981;-67
2021/01/16 02:23:51;;;;;;;;;;;8.50;56.00;;;;;;5102903;28;19907;-66
2021/01/16 02:26:17;;;;;;;;;;;8.40;55.90;;;;;;5102584;28;20117;-67
2021/01/16 02:28:48;;;;;;;;;;;8.40;56.40;;;;;;5102610;28;19984;-62
2021/01/16 02:31:15;;;;;;;;;;;8.40;55.90;;;;;;5102553;28;20089;-66
2021/01/16 02:33:42;;;;;;;;;;;8.50;56.00;;;;;;5102588;28;19900;-67
2021/01/16 02:36:13;;;;;;;;;;;8.50;56.10;;;;;;5102596;28;20298;-67
2021/01/16 02:38:57;;;;;;;;;;;8.50;55.70;;;;;;5102552;28;20069;-67
2021/01/16 02:41:29;;;;;;;;;;;8.50;55.90;;;;;;5102412;28;19919;-65
2021/01/16 02:44:01;;;;;;;;;;;8.50;55.80;;;;;;5102464;28;19950;-64
2021/01/16 02:46:38;;;;;;;;;;;8.50;56.10;;;;;;5102494;28;20198;-66
2021/01/16 02:49:12;;;;;;;;;;;8.40;56.00;;;;;;5102431;28;19900;-66
2021/01/16 02:51:40;;;;;;;;;;;8.40;55.60;;;;;;5102404;28;20277;-66
2021/01/16 02:54:06;;;;;;;;;;;8.40;55.80;;;;;;5102347;28;19923;-68
2021/01/16 02:56:34;;;;;;;;;;;8.40;56.10;;;;;;5105342;28;20208;-64
2021/01/16 02:58:59;;;;;;;;;;;8.40;56.10;;;;;;5105125;28;20107;-66
2021/01/16 03:01:25;;;;;;;;;;;8.40;55.90;;;;;;5106260;28;19935;-67
2021/01/16 03:03:50;;;;;;;;;;;8.40;55.90;;;;;;5106256;28;19907;-65
2021/01/16 03:06:17;;;;;;;;;;;8.40;55.70;;;;;;5106113;28;19904;-66
2021/01/16 03:08:43;;;;;;;;;;;8.40;55.60;;;;;;5106114;28;19939;-66
2021/01/16 03:11:10;;;;;;;;;;;8.40;55.80;;;;;;5106149;28;19900;-66
2021/01/16 03:13:36;;;;;;;;;;;8.40;55.70;;;;;;5106039;28;19928;-68
2021/01/16 03:16:04;;;;;;;;;;;8.40;55.60;;;;;;5106015;28;19927;-67
2021/01/16 03:18:31;;;;;;;;;;;8.40;55.70;;;;;;5105974;28;19946;-66
2021/01/16 03:20:58;;;;;;;;;;;8.40;55.90;;;;;;5105586;28;19903;-66
2021/01/16 03:23:24;;;;;;;;;;;8.40;56.00;;;;;;5105906;28;19900;-68
2021/01/16 03:25:49;;;;;;;;;;;8.40;55.80;;;;;;5105859;28;20219;-67
2021/01/16 03:28:15;;;;;;;;;;;8.40;56.00;;;;;;5105746;28;19900;-66
2021/01/16 03:30:40;;;;;;;;;;;8.40;56.00;;;;;;5105743;28;19939;-68
2021/01/16 03:33:06;;;;;;;;;;;8.40;55.90;;;;;;5105698;28;19923;-66
2021/01/16 03:35:31;;;;;;;;;;;8.40;55.80;;;;;;5104451;28;19900;-68
2021/01/16 03:37:57;;;;;;;;;;;8.40;55.70;;;;;;5105609;28;19903;-67
2021/01/16 03:40:23;;;;;;;;;;;8.40;55.70;;;;;;5105467;28;20219;-64
2021/01/16 03:42:48;;;;;;;;;;;8.50;55.50;;;;;;5105560;28;20153;-67
2021/01/16 03:45:16;;;;;;;;;;;8.40;55.70;;;;;;5105432;28;20108;-66
2021/01/16 03:47:42;;;;;;;;;;;8.40;55.60;;;;;;5105422;28;19900;-66
2021/01/16 03:50:08;;;;;;;;;;;8.40;55.80;;;;;;5105367;28;19941;-68
2021/01/16 03:52:35;;;;;;;;;;;8.40;55.60;;;;;;5105296;28;19912;-66
2021/01/16 03:55:00;;;;;;;;;;;8.40;55.70;;;;;;5105240;28;19907;-66
2021/01/16 03:57:26;;;;;;;;;;;8.40;55.50;;;;;;5105191;28;19900;-67
2021/01/16 03:59:52;;;;;;;;;;;8.40;55.80;;;;;;5105097;28;19904;-65
2021/01/16 04:02:18;;;;;;;;;;;8.40;55.80;;;;;;5105143;28;20212;-65
2021/01/16 04:04:44;;;;;;;;;;;8.40;55.90;;;;;;5105048;28;19907;-67
2021/01/16 04:07:10;;;;;;;;;;;8.40;55.80;;;;;;5104258;28;19915;-66
2021/01/16 04:09:35;;;;;;;;;;;8.40;55.70;;;;;;5104986;28;19907;-67
2021/01/16 04:12:01;;;;;;;;;;;8.40;56.00;;;;;;5104933;28;19907;-67
2021/01/16 04:14:27;;;;;;;;;;;8.40;55.90;;;;;;5104922;28;19963;-67
2021/01/16 04:16:52;;;;;;;;;;;8.40;55.80;;;;;;5103662;28;19914;-67
2021/01/16 04:19:18;;;;;;;;;;;8.40;55.70;;;;;;5104769;28;19915;-64
2021/01/16 04:21:44;;;;;;;;;;;8.40;55.80;;;;;;5104576;28;19919;-66
2021/01/16 04:24:10;;;;;;;;;;;8.40;55.60;;;;;;5104740;28;20208;-66
2021/01/16 04:26:35;;;;;;;;;;;8.40;55.60;;;;;;5104664;28;19900;-68
2021/01/16 04:29:01;;;;;;;;;;;8.40;55.80;;;;;;5104627;28;19899;-68
2021/01/16 04:31:26;;;;;;;;;;;8.40;55.80;;;;;;5104567;28;20192;-68
2021/01/16 04:33:52;;;;;;;;;;;8.40;55.70;;;;;;5104577;28;20311;-64
2021/01/16 04:36:17;;;;;;;;;;;8.40;55.70;;;;;;5104507;28;19940;-68
2021/01/16 04:38:43;;;;;;;;;;;8.40;55.80;;;;;;5104415;28;20095;-66
2021/01/16 04:41:09;;;;;;;;;;;8.40;55.50;;;;;;5104341;28;19961;-66
2021/01/16 04:43:34;;;;;;;;;;;8.40;55.40;;;;;;5104345;28;19915;-66
2021/01/16 04:46:05;;;;;;;;;;;8.40;56.00;;;;;;5104332;28;19908;-65
2021/01/16 04:48:32;;;;;;;;;;;8.40;55.90;;;;;;5104249;28;19899;-65
2021/01/16 04:50:59;;;;;;;;;;;8.40;55.80;;;;;;5104201;28;20101;-66
2021/01/16 04:53:27;;;;;;;;;;;8.30;55.50;;;;;;5104102;28;19908;-66
2021/01/16 04:55:53;;;;;;;;;;;8.40;55.90;;;;;;5104100;28;19908;-66
2021/01/16 04:58:19;;;;;;;;;;;8.40;55.80;;;;;;5104017;28;20130;-66
2021/01/16 05:00:44;;;;;;;;;;;8.40;56.30;;;;;;5103903;28;19927;-67
2021/01/16 05:03:11;;;;;;;;;;;8.40;55.90;;;;;;5103993;28;19900;-68
2021/01/16 05:05:40;;;;;;;;;;;8.40;55.80;;;;;;5104157;28;19927;-67
2021/01/16 05:08:07;;;;;;;;;;;8.40;56.00;;;;;;5103830;28;19941;-66
2021/01/16 05:10:40;;;;;;;;;;;8.30;55.70;;;;;;5102571;28;19939;-68
2021/01/16 05:13:10;;;;;;;;;;;8.30;55.70;;;;;;5103782;28;19900;-68
2021/01/16 05:15:36;;;;;;;;;;;8.30;55.90;;;;;;5103688;28;19907;-67
2021/01/16 05:18:04;;;;;;;;;;;8.30;55.60;;;;;;5103611;28;20061;-64
2021/01/16 05:20:30;;;;;;;;;;;8.30;55.70;;;;;;5103549;28;19919;-68
2021/01/16 05:23:11;;;;;;;;;;;8.30;55.70;;;;;;5103447;28;19919;-66
2021/01/16 05:25:43;;;;;;;;;;;8.30;55.80;;;;;;5103817;28;19900;-67
2021/01/16 05:28:09;;;;;;;;;;;8.30;55.70;;;;;;5103548;28;19908;-66
2021/01/16 05:30:44;;;;;;;;;;;8.30;55.70;;;;;;5103432;28;19943;-67
2021/01/16 05:33:10;;;;;;;;;;;8.30;56.00;;;;;;5103464;28;19915;-65
2021/01/16 05:35:35;;;;;;;;;;;8.30;55.90;;;;;;5103355;28;19899;-66
2021/01/16 05:38:01;;;;;;;;;;;8.30;55.80;;;;;;5103303;28;19899;-68
2021/01/16 05:40:28;;;;;;;;;;;8.30;55.60;;;;;;5103170;28;19998;-68
2021/01/16 05:42:54;;;;;;;;;;;8.30;55.60;;;;;;5103217;28;20143;-66
2021/01/16 05:45:20;;;;;;;;;;;8.30;55.90;;;;;;5103191;28;19948;-68
2021/01/16 05:47:46;;;;;;;;;;;8.30;55.70;;;;;;5103171;28;19922;-67
2021/01/16 05:50:12;;;;;;;;;;;8.30;55.90;;;;;;5103088;28;19940;-66
2021/01/16 05:52:41;;;;;;;;;;;8.30;55.90;;;;;;5103076;28;19908;-66
2021/01/16 05:55:07;;;;;;;;;;;8.30;55.80;;;;;;5102999;28;20247;-67
2021/01/16 05:57:33;;;;;;;;;;;8.30;56.00;;;;;;5103011;28;19908;-65
2021/01/16 06:00:00;;;;;;;;;;;8.30;55.90;;;;;;5102838;28;20294;-67
2021/01/16 06:02:30;;;;;;;;;;;8.30;55.80;;;;;;5102936;28;20305;-67
2021/01/16 06:04:56;;;;;;;;;;;8.30;56.00;;;;;;5102905;28;20104;-67
2021/01/16 06:07:22;;;;;;;;;;;8.30;56.00;;;;;;5102878;28;19900;-67
2021/01/16 06:09:49;;;;;;;;;;;8.30;55.80;;;;;;5102761;28;19908;-66
2021/01/16 06:12:15;;;;;;;;;;;8.30;55.70;;;;;;5102780;28;19908;-67
2021/01/16 06:14:42;;;;;;;;;;;8.30;55.50;;;;;;5102790;28;20092;-67
2021/01/16 06:17:10;;;;;;;;;;;8.30;55.40;;;;;;5101515;28;19980;-67
2021/01/16 06:19:36;;;;;;;;;;;8.30;55.50;;;;;;5102653;28;19903;-68
2021/01/16 06:22:07;;;;;;;;;;;8.30;55.70;;;;;;5102531;28;19917;-65
2021/01/16 06:24:35;;;;;;;;;;;8.30;56.00;;;;;;5102662;28;19912;-65
2021/01/16 06:27:02;;;;;;;;;;;8.20;55.80;;;;;;5102592;28;19904;-68
2021/01/16 06:29:29;;;;;;;;;;;8.20;55.90;;;;;;5102895;28;19973;-68
2021/01/16 06:32:03;;;;;;;;;;;8.20;55.90;;;;;;5109120;28;19908;-66
2021/01/16 06:34:30;;;;;;;;;;;8.20;56.00;;;;;;5109342;28;19908;-66
2021/01/16 06:37:09;;;;;;;;;;;8.30;56.00;;;;;;5109335;28;20242;-67
2021/01/16 06:39:42;;;;;;;;;;;8.30;56.00;;;;;;5109193;28;19912;-66
2021/01/16 06:42:09;;;;;;;;;;;8.30;55.70;;;;;;5109265;28;19907;-68
2021/01/16 06:44:34;;;;;;;;;;;8.30;55.70;;;;;;5109253;28;19963;-65
2021/01/16 06:47:00;;;;;;;;;;;8.30;55.60;;;;;;5109243;28;19915;-65
2021/01/16 06:49:26;;;;;;;;;;;8.30;55.90;;;;;;5109192;28;19908;-67
2021/01/16 06:51:56;;;;;;;;;;;8.30;55.90;;;;;;5109200;28;19904;-67
2021/01/16 06:54:26;;;;;;;;;;;8.30;55.90;;;;;;5109159;28;20219;-65
2021/01/16 06:57:02;;;;;;;;;;;8.20;55.70;;;;;;5109173;28;19900;-67
2021/01/16 06:59:28;;;;;;;;;;;8.20;55.80;;;;;;5109055;28;20218;-67
2021/01/16 07:01:54;;;;;;;;;;;8.20;55.60;;;;;;5109071;28;19900;-66
2021/01/16 07:04:21;;;;;;;;;;;8.20;55.80;;;;;;5109066;28;19915;-67
2021/01/16 07:06:47;;;;;;;;;;;8.30;56.00;;;;;;5109052;28;19900;-66
2021/01/16 07:09:23;;;;;;;;;;;8.30;55.90;;;;;;5109025;28;19959;-67
2021/01/16 07:11:53;;;;;;;;;;;8.30;55.90;;;;;;5108957;28;19950;-65
2021/01/16 07:14:19;;;;;;;;;;;8.20;55.70;;;;;;5108979;28;19970;-64
2021/01/16 07:16:45;;;;;;;;;;;8.30;55.60;;;;;;5108886;28;19904;-68
2021/01/16 07:19:11;;;;;;;;;;;8.30;55.90;;;;;;5108828;28;19961;-68
2021/01/16 07:21:38;;;;;;;;;;;8.30;56.30;;;;;;5108732;28;19912;-68
2021/01/16 07:24:04;;;;;;;;;;;8.30;55.80;;;;;;5108885;28;19941;-66
2021/01/16 07:26:30;;;;;;;;;;;8.30;55.90;;;;;;5108887;28;19929;-66
2021/01/16 07:28:57;;;;;;;;;;;8.30;55.90;;;;;;5109069;28;19938;-68
2021/01/16 07:31:23;;;;;;;;;;;8.30;56.10;;;;;;5108809;28;19970;-64
2021/01/16 07:33:49;;;;;;;;;;;8.30;55.90;;;;;;5108775;28;19904;-67
2021/01/16 07:36:17;;;;;;;;;;;8.30;55.90;;;;;;5108736;28;19908;-67
2021/01/16 07:38:44;;;;;;;;;;;8.30;56.00;;;;;;5108747;28;20147;-67
2021/01/16 07:41:11;;;;;;;;;;;8.30;56.10;;;;;;5107845;28;20112;-65
2021/01/16 07:43:40;;;;;;;;;;;8.30;56.00;;;;;;5104739;28;19992;-67
2021/01/16 07:46:10;;;;;;;;;;;8.30;55.90;;;;;;5105473;28;20073;-67
2021/01/16 07:48:45;;;;;;;;;;;8.30;55.80;;;;;;5105503;28;19946;-66
2021/01/16 07:51:11;;;;;;;;;;;8.30;55.80;;;;;;5105453;28;20092;-66
2021/01/16 07:53:41;;;;;;;;;;;8.30;55.80;;;;;;5105366;28;19942;-67
2021/01/16 07:56:16;;;;;;;;;;;8.30;55.90;;;;;;5105267;28;19906;-67
2021/01/16 07:58:43;;;;;;;;;;;8.30;55.90;;;;;;5105271;28;19900;-65
2021/01/16 08:01:17;;;;;;;;;;;8.30;56.00;;;;;;5105129;28;19986;-68
2021/01/16 08:03:46;;;;;;;;;;;8.30;55.80;;;;;;5105169;28;20235;-67
2021/01/16 08:06:24;;;;;;;;;;;8.30;55.80;;;;;;5105102;28;19900;-68
2021/01/16 08:08:55;;;;;;;;;;;8.30;55.80;;;;;;5105100;28;19907;-67
2021/01/16 08:11:29;;;;;;;;;;;8.30;55.90;;;;;;5105078;28;19971;-68
2021/01/16 08:14:01;;;;;;;;;;;8.30;56.00;;;;;;5105242;28;20418;-65
2021/01/16 08:16:27;;;;;;;;;;;8.30;55.80;;;;;;5104945;28;19904;-66
2021/01/16 08:19:18;;;;;;;;;;;8.30;55.80;;;;;;5104880;28;20096;-63
2021/01/16 08:21:54;;;;;;;;;;;8.30;55.90;;;;;;5101789;28;19952;-68
2021/01/16 08:24:21;;;;;;;;;;;8.30;56.00;;;;;;5104809;28;19912;-65
2021/01/16 08:26:57;;;;;;;;;;;8.30;55.60;;;;;;5104664;28;19918;-67
2021/01/16 08:29:23;;;;;;;;;;;8.30;55.80;;;;;;5104682;28;19944;-66
2021/01/16 08:31:48;;;;;;;;;;;8.30;55.80;;;;;;5103452;28;20122;-67
2021/01/16 08:34:33;;;;;;;;;;;8.30;55.70;;;;;;5104571;28;19900;-67
2021/01/16 08:37:07;;;;;;;;;;;8.40;55.70;;;;;;5104541;28;19907;-65
2021/01/16 08:39:42;;;;;;;;;;;8.40;55.80;;;;;;5104393;28;19933;-67
2021/01/16 08:42:07;;;;;;;;;;;8.40;56.00;;;;;;5104445;28;19907;-67
2021/01/16 08:44:49;;;;;;;;;;;8.40;55.90;;;;;;5104344;28;20099;-63
2021/01/16 08:47:16;;;;;;;;;;;8.40;55.90;;;;;;5104345;28;19930;-65
2021/01/16 08:49:42;;;;;;;;;;;8.40;55.80;;;;;;5104283;28;19907;-66
2021/01/16 08:52:07;;;;;;;;;;;8.40;55.80;;;;;;5104221;28;19900;-66
2021/01/16 08:54:33;;;;;;;;;;;8.40;55.80;;;;;;5103874;28;19915;-64
2021/01/16 08:56:58;;;;;;;;;;;8.40;56.00;;;;;;5104110;28;19900;-65
2021/01/16 08:59:33;;;;;;;;;;;8.40;55.90;;;;;;5104008;28;19900;-66
2021/01/16 09:02:08;;;;;;;;;;;8.40;55.90;;;;;;5104001;28;19975;-66
2021/01/16 09:04:37;;;;;;;;;;;8.40;55.80;;;;;;5103582;28;19916;-64
2021/01/16 09:07:17;;;;;;;;;;;8.40;55.80;;;;;;5103918;28;19900;-65
2021/01/16 09:09:54;;;;;;;;;;;8.40;55.80;;;;;;5103816;28;19900;-66
2021/01/16 09:12:39;;;;;;;;;;;8.50;55.80;;;;;;5103863;28;19919;-67
2021/01/16 09:15:22;;;;;;;;;;;8.50;55.40;;;;;;5103801;28;19908;-67
2021/01/16 09:17:59;;;;;;;;;;;8.50;55.40;;;;;;5103767;28;19900;-68
2021/01/16 09:20:25;;;;;;;;;;;8.50;55.40;;;;;;5103571;28;19911;-67
2021/01/16 09:22:51;;;;;;;;;;;8.60;55.40;;;;;;5103539;28;19935;-68
2021/01/16 09:25:23;;;;;;;;;;;8.60;55.40;;;;;;5103594;28;19900;-66
2021/01/16 09:27:49;;;;;;;;;;;8.50;55.50;;;;;;5103827;28;19900;-66
2021/01/16 09:30:20;;;;;;;;;;;8.60;55.50;;;;;;5103524;28;19929;-67
2021/01/16 09:32:45;;;;;;;;;;;8.50;55.50;;;;;;5103496;28;19949;-66
2021/01/16 09:35:11;;;;;;;;;;;8.50;55.60;;;;;;5103434;28;19935;-66
2021/01/16 09:37:36;;;;;;;;;;;8.50;55.70;;;;;;5103338;28;19904;-66
2021/01/16 09:40:06;;;;;;;;;;;8.50;55.90;;;;;;5103309;28;20398;-65
2021/01/16 09:42:40;;;;;;;;;;;8.50;55.90;;;;;;5103352;28;19900;-68
2021/01/16 09:45:06;;;;;;;;;;;8.50;55.70;;;;;;5103260;28;19950;-67
2021/01/16 09:47:32;;;;;;;;;;;8.60;55.50;;;;;;5103228;28;20111;-68
2021/01/16 09:50:00;;;;;;;;;;;8.50;55.40;;;;;;5103169;28;19946;-68
2021/01/16 09:52:26;;;;;;;;;;;8.50;55.50;;;;;;5103081;28;19907;-67
2021/01/16 09:54:53;;;;;;;;;;;8.50;55.80;;;;;;5103096;28;19907;-67
2021/01/16 09:57:34;;;;;;;;;;;8.60;55.70;;;;;;5103012;28;19908;-67
2021/01/16 10:00:10;;;;;;;;;;;8.50;55.80;;;;;;5102930;28;20097;-67
2021/01/16 10:02:40;;;;;;;;;;;8.60;55.70;;;;;;5102905;28;19900;-66
2021/01/16 10:05:07;;;;;;;;;;;8.60;55.80;;;;;;5102264;28;19979;-66
2021/01/16 10:07:38;;;;;;;;;;;8.50;55.60;;;;;;5102897;28;19908;-63
2021/01/16 10:10:30;;;;;;;;;;;8.60;55.70;;;;;;5102893;28;19900;-66
2021/01/16 10:12:56;;;;;;;;;;;8.50;55.70;;;;;;5094086;28;19910;-66
2021/01/16 10:15:25;;;;;;;;;;;8.50;55.90;;;;;;5102822;28;19900;-66
2021/01/16 10:17:52;;;;;;;;;;;8.50;55.70;;;;;;5102823;28;19942;-67
2021/01/16 10:20:18;;;;;;;;;;;8.50;55.70;;;;;;5102687;28;20192;-68
2021/01/16 10:22:48;;;;;;;;;;;8.50;55.70;;;;;;5102535;28;20192;-66
2021/01/16 10:25:15;;;;;;;;;;;8.50;55.60;;;;;;5102711;28;19900;-66
2021/01/16 10:27:40;;;;;;;;;;;8.60;55.70;;;;;;5102697;28;19908;-66
2021/01/16 10:30:10;;;;;;;;;;;8.50;55.70;;;;;;5102621;28;20013;-67
2021/01/16 10:32:35;;;;;;;;;;;8.50;55.80;;;;;;5102620;28;20128;-68
2021/01/16 10:35:01;;;;;;;;;;;8.50;55.60;;;;;;5102591;28;19931;-68
2021/01/16 10:37:29;;;;;;;;;;;8.60;55.90;;;;;;5102575;28;19900;-68
2021/01/16 10:39:56;;;;;;;;;;;8.60;55.60;;;;;;5102505;28;20108;-68
2021/01/16 10:42:21;;;;;;;;;;;8.60;55.40;;;;;;5102586;28;20131;-67
2021/01/16 10:44:47;;;;;;;;;;;8.60;55.60;;;;;;5102519;28;19900;-68
2021/01/16 10:47:41;;;;;;;;;;;8.60;55.40;;;;;;5102492;28;20208;-65
2021/01/16 10:50:29;;;;;;;;;;;8.50;55.60;;;;;;5101347;28;19970;-66
2021/01/16 10:53:01;;;;;;;;;;;8.50;55.80;;;;;;5102370;28;19900;-67
2021/01/16 10:55:46;;;;;;;;;;;8.60;55.80;;;;;;5102382;28;19936;-67
2021/01/16 10:58:20;;;;;;;;;;;8.60;55.90;;;;;;5102340;28;19923;-65
2021/01/16 11:00:52;;;;;;;;;;;8.50;55.60;;;;;;5102372;28;19919;-68
2021/01/16 11:03:18;;;;;;;;;;;8.60;55.90;;;;;;5102368;28;20013;-66
2021/01/16 11:05:48;;;;;;;;;;;8.60;55.90;;;;;;5102346;28;19950;-66
2021/01/16 11:08:19;;;;;;;;;;;8.60;55.60;;;;;;5102265;28;19908;-65
2021/01/16 11:10:46;;;;;;;;;;;8.50;55.60;;;;;;5102556;28;19911;-68
2021/01/16 11:13:21;;;;;;;;;;;8.60;55.70;;;;;;5102259;28;19907;-67
2021/01/16 11:15:50;;;;;;;;;;;8.50;55.80;;;;;;5102244;28;19900;-66
2021/01/16 11:18:25;;;;;;;;;;;8.50;55.90;;;;;;5106068;28;19930;-67
2021/01/16 11:20:56;;;;;;;;;;;8.60;55.90;;;;;;5105969;28;19904;-68
2021/01/16 11:23:27;;;;;;;;;;;8.60;55.90;;;;;;5105852;28;19912;-68
2021/01/16 11:25:53;;;;;;;;;;;8.60;55.90;;;;;;5105937;28;20107;-66
2021/01/16 11:28:20;;;;;;;;;;;8.60;55.70;;;;;;5104670;28;19922;-66
2021/01/16 11:30:46;;;;;;;;;;;8.60;56.00;;;;;;5105806;28;19907;-66
2021/01/16 11:33:16;;;;;;;;;;;8.60;55.90;;;;;;5105790;28;19900;-64
2021/01/16 11:35:43;;;;;;;;;;;8.50;55.50;;;;;;5105729;28;19942;-62
2021/01/16 11:38:27;;;;;;;;;;;8.60;55.70;;;;;;5105681;28;19908;-65
2021/01/16 11:40:53;;;;;;;;;;;8.60;55.60;;;;;;5104344;28;19915;-67
2021/01/16 11:43:24;;;;;;;;;;;8.60;55.60;;;;;;5104333;28;19907;-67
2021/01/16 11:45:59;;;;;;;;;;;8.50;55.70;;;;;;5104434;28;19912;-68
2021/01/16 11:48:26;;;;;;;;;;;8.60;55.80;;;;;;5105482;28;19908;-65
2021/01/16 11:50:51;;;;;;;;;;;8.50;55.80;;;;;;5105492;28;19906;-67
2021/01/16 11:53:17;;;;;;;;;;;8.50;55.90;;;;;;5105965;28;19900;-65
2021/01/16 11:55:42;;;;;;;;;;;8.50;56.00;;;;;;5105403;28;19953;-66
2021/01/16 11:58:09;;;;;;;;;;;8.50;56.20;;;;;;5105377;28;20014;-65
2021/01/16 12:00:36;;;;;;;;;;;8.50;56.10;;;;;;5105196;28;20203;-70
2021/01/16 12:03:01;;;;;;;;;;;8.60;55.80;;;;;;5105252;28;19957;-67
2021/01/16 12:05:27;;;;;;;;;;;8.60;55.70;;;;;;5105140;28;19908;-68
2021/01/16 12:07:53;;;;;;;;;;;8.50;55.80;;;;;;5105123;28;19908;-65
2021/01/16 12:10:23;;;;;;;;;;;8.60;55.80;;;;;;5105122;28;19900;-65
2021/01/16 12:12:48;;;;;;;;;;;8.60;55.70;;;;;;5105021;28;19908;-66
2021/01/16 12:15:17;;;;;;;;;;;8.60;55.80;;;;;;5104946;28;19907;-66
2021/01/16 12:17:44;;;;;;;;;;;8.60;55.80;;;;;;5104966;28;19950;-66
2021/01/16 12:20:10;;;;;;;;;;;8.50;55.90;;;;;;5104830;28;19956;-66
2021/01/16 12:22:36;;;;;;;;;;;8.50;55.80;;;;;;5104695;28;20253;-68
2021/01/16 12:25:07;;;;;;;;;;;8.60;55.70;;;;;;5104837;28;20189;-66
2021/01/16 12:27:36;;;;;;;;;;;8.60;55.70;;;;;;5104226;28;20200;-64
2021/01/16 12:30:01;;;;;;;;;;;8.50;55.80;;;;;;5104539;28;19906;-68
2021/01/16 12:32:36;;;;;;;;;;;8.60;55.80;;;;;;5104652;28;19900;-67
2021/01/16 12:35:01;;;;;;;;;;;8.50;55.60;;;;;;5104695;28;19945;-67
2021/01/16 12:37:31;;;;;;;;;;;8.50;55.60;;;;;;5104565;28;20119;-68
2021/01/16 12:39:57;;;;;;;;;;;8.50;55.80;;;;;;5104427;28;19911;-68
2021/01/16 12:42:22;;;;;;;;;;;8.50;55.90;;;;;;5104417;28;19900;-66
2021/01/16 12:44:48;;;;;;;;;;;8.50;55.70;;;;;;5104423;28;19915;-66
2021/01/16 12:47:23;;;;;;;;;;;8.50;55.80;;;;;;5104386;28;20069;-65
2021/01/16 12:49:49;;;;;;;;;;;8.50;55.70;;;;;;5104328;28;19915;-66
2021/01/16 12:52:21;;;;;;;;;;;8.60;55.80;;;;;;5104269;28;19908;-65
2021/01/16 12:54:55;;;;;;;;;;;8.60;55.80;;;;;;5104188;28;19900;-67
2021/01/16 12:57:24;;;;;;;;;;;8.60;55.80;;;;;;5104231;28;20188;-69
2021/01/16 12:59:50;;;;;;;;;;;8.60;55.70;;;;;;5103996;28;20219;-65
2021/01/16 13:02:16;;;;;;;;;;;8.50;55.70;;;;;;5104088;28;19899;-66
2021/01/16 13:04:41;;;;;;;;;;;8.60;55.50;;;;;;5104018;28;19923;-68
2021/01/16 13:07:09;;;;;;;;;;;8.50;55.60;;;;;;5104030;28;19899;-67
2021/01/16 13:09:39;;;;;;;;;;;8.50;55.50;;;;;;5103940;28;19949;-67
2021/01/16 13:12:06;;;;;;;;;;;8.50;55.50;;;;;;5103893;28;20203;-66
2021/01/16 13:15:07;;;;;;;;;;;8.50;55.60;;;;;;5103837;28;19900;-68
2021/01/16 13:17:33;;;;;;;;;;;8.50;55.60;;;;;;5081364;28;19904;-67
2021/01/16 13:19:59;;;;;;;;;;;8.60;55.50;;;;;;5098954;28;19922;-66
2021/01/16 13:22:26;;;;;;;;;;;8.60;55.50;;;;;;5103505;28;19991;-65
2021/01/16 13:25:08;;;;;;;;;;;8.70;55.60;;;;;;5103682;28;19900;-68
2021/01/16 13:27:37;;;;;;;;;;;8.60;55.20;;;;;;5103580;28;19952;-66
2021/01/16 13:30:09;;;;;;;;;;;8.60;55.30;;;;;;5103579;28;19908;-66
2021/01/16 13:32:35;;;;;;;;;;;8.60;55.10;;;;;;5103489;28;19939;-67
2021/01/16 13:35:02;;;;;;;;;;;8.60;55.30;;;;;;5103469;28;19967;-67
2021/01/16 13:37:29;;;;;;;;;;;8.60;55.40;;;;;;5103414;28;19942;-67
2021/01/16 13:39:56;;;;;;;;;;;8.70;55.30;;;;;;5102312;28;19918;-67
2021/01/16 13:42:23;;;;;;;;;;;8.70;55.50;;;;;;5103400;28;19907;-67
2021/01/16 13:45:03;;;;;;;;;;;8.80;55.10;;;;;;5103288;28;19899;-68
2021/01/16 13:47:29;;;;;;;;;;;8.80;54.90;;;;;;5103272;28;19900;-67
2021/01/16 13:50:07;;;;;;;;;;;8.80;54.80;;;;;;5103219;28;19908;-66
2021/01/16 13:52:39;;;;;;;;;;;8.80;54.90;;;;;;5103189;28;19912;-66
2021/01/16 13:55:12;;;;;;;;;;;8.80;55.20;;;;;;5103117;28;19908;-66
2021/01/16 13:57:37;;;;;;;;;;;8.80;55.10;;;;;;5103088;28;19907;-67
2021/01/16 14:00:03;;;;;;;;;;;8.80;55.00;;;;;;5102992;28;20104;-66
2021/01/16 14:02:29;;;;;;;;;;;8.80;55.30;;;;;;5103096;28;19900;-66
2021/01/16 14:04:55;;;;;;;;;;;8.80;55.20;;;;;;5102959;28;19950;-65
2021/01/16 14:07:24;;;;;;;;;;;8.80;55.10;;;;;;5102951;28;19899;-66
2021/01/16 14:09:50;;;;;;;;;;;8.80;55.20;;;;;;5102890;28;19915;-65
2021/01/16 14:12:16;;;;;;;;;;;8.70;55.20;;;;;;5102817;28;19923;-67
2021/01/16 14:14:42;;;;;;;;;;;8.70;55.30;;;;;;5102845;28;19982;-68
2021/01/16 14:17:09;;;;;;;;;;;8.70;55.30;;;;;;5103085;28;19908;-67
2021/01/16 14:19:35;;;;;;;;;;;8.70;55.20;;;;;;5102714;28;20112;-65
2021/01/16 14:22:00;;;;;;;;;;;8.60;55.30;;;;;;5102626;28;19934;-65
2021/01/16 14:24:26;;;;;;;;;;;8.60;54.90;;;;;;5102717;28;19900;-65
2021/01/16 14:27:02;;;;;;;;;;;8.60;55.50;;;;;;5102676;28;19923;-67
2021/01/16 14:29:29;;;;;;;;;;;8.60;55.50;;;;;;5102681;28;19904;-67
2021/01/16 14:31:55;;;;;;;;;;;8.60;55.50;;;;;;5102566;28;19908;-66
2021/01/16 14:34:20;;;;;;;;;;;8.50;55.40;;;;;;5102589;28;19963;-66
2021/01/16 14:37:05;;;;;;;;;;;8.50;55.40;;;;;;5102572;28;19942;-65
2021/01/16 14:39:40;;;;;;;;;;;8.50;55.60;;;;;;5102783;28;19931;-66